sensor_id;sensor_type;location;lat;lon;timestamp;pressure;altitude;pressure_sealevel;temperature
19666;BMP180;9980;51.020;7.772;2022-08-19T00:02:03;97316.00;;;20.30
19666;BMP180;9980;51.020;7.772;2022-08-19T00:04:34;97340.00;;;20.30
19666;BMP180;9980;51.020;7.772;2022-08-19T00:07:06;97330.00;;;20.30
19666;BMP180;9980;51.020;7.772;2022-08-19T00:09:33;97333.00;;;20.30
19666;BMP180;9980;51.020;7.772;2022-08-19T00:12:01;97338.00;;;20.20
19666;BMP180;9980;51.020;7.772;2022-08-19T00:14:29;97337.00;;;20.20
19666;BMP180;9980;51.020;7.772;2022-08-19T00:16:58;97340.00;;;20.20
19666;BMP180;9980;51.020;7.772;2022-08-19T00:19:25;97338.00;;;20.20
19666;BMP180;9980;51.020;7.772;2022-08-19T00:21:56;97322.00;;;20.20
19666;BMP180;9980;51.020;7.772;2022-08-19T00:24:23;97321.00;;;20.10
19666;BMP180;9980;51.020;7.772;2022-08-19T00:26:52;97312.00;;;20.10
19666;BMP180;9980;51.020;7.772;2022-08-19T00:29:21;97339.00;;;20.10
19666;BMP180;9980;51.020;7.772;2022-08-19T00:31:50;97339.00;;;20.10
19666;BMP180;9980;51.020;7.772;2022-08-19T00:34:21;97353.00;;;20.10
19666;BMP180;9980;51.020;7.772;2022-08-19T00:36:49;97335.00;;;20.00
19666;BMP180;9980;51.020;7.772;2022-08-19T00:39:17;97321.00;;;20.00
19666;BMP180;9980;51.020;7.772;2022-08-19T00:41:45;97336.00;;;20.00
19666;BMP180;9980;51.020;7.772;2022-08-19T00:44:26;97325.00;;;20.00
19666;BMP180;9980;51.020;7.772;2022-08-19T00:46:57;97317.00;;;19.90
19666;BMP180;9980;51.020;7.772;2022-08-19T00:49:48;97321.00;;;19.90
19666;BMP180;9980;51.020;7.772;2022-08-19T00:52:25;97325.00;;;19.90
19666;BMP180;9980;51.020;7.772;2022-08-19T00:54:57;97317.00;;;19.90
19666;BMP180;9980;51.020;7.772;2022-08-19T00:57:33;97312.00;;;19.90
19666;BMP180;9980;51.020;7.772;2022-08-19T01:00:06;97313.00;;;19.80
19666;BMP180;9980;51.020;7.772;2022-08-19T01:02:33;97316.00;;;19.80
19666;BMP180;9980;51.020;7.772;2022-08-19T01:05:06;97305.00;;;19.80
19666;BMP180;9980;51.020;7.772;2022-08-19T01:07:37;97316.00;;;19.80
19666;BMP180;9980;51.020;7.772;2022-08-19T01:10:10;97310.00;;;19.80
19666;BMP180;9980;51.020;7.772;2022-08-19T01:12:39;97305.00;;;19.80
19666;BMP180;9980;51.020;7.772;2022-08-19T01:15:09;97293.00;;;19.80
19666;BMP180;9980;51.020;7.772;2022-08-19T01:17:39;97301.00;;;19.80
19666;BMP180;9980;51.020;7.772;2022-08-19T01:20:15;97294.00;;;19.70
19666;BMP180;9980;51.020;7.772;2022-08-19T01:22:46;97292.00;;;19.70
19666;BMP180;9980;51.020;7.772;2022-08-19T01:25:17;97293.00;;;19.70
19666;BMP180;9980;51.020;7.772;2022-08-19T01:27:50;97290.00;;;19.70
19666;BMP180;9980;51.020;7.772;2022-08-19T01:30:32;97295.00;;;19.60
19666;BMP180;9980;51.020;7.772;2022-08-19T01:33:01;97304.00;;;19.70
19666;BMP180;9980;51.020;7.772;2022-08-19T01:35:30;97287.00;;;19.60
19666;BMP180;9980;51.020;7.772;2022-08-19T01:38:06;97305.00;;;19.60
19666;BMP180;9980;51.020;7.772;2022-08-19T01:40:39;97298.00;;;19.60
19666;BMP180;9980;51.020;7.772;2022-08-19T01:43:06;97282.00;;;19.60
19666;BMP180;9980;51.020;7.772;2022-08-19T01:45:36;97304.00;;;19.60
19666;BMP180;9980;51.020;7.772;2022-08-19T01:48:04;97309.00;;;19.60
19666;BMP180;9980;51.020;7.772;2022-08-19T01:50:34;97299.00;;;19.60
19666;BMP180;9980;51.020;7.772;2022-08-19T01:53:06;97303.00;;;19.60
19666;BMP180;9980;51.020;7.772;2022-08-19T01:55:38;97291.00;;;19.50
19666;BMP180;9980;51.020;7.772;2022-08-19T01:58:16;97294.00;;;19.50
19666;BMP180;9980;51.020;7.772;2022-08-19T02:00:47;97315.00;;;19.50
19666;BMP180;9980;51.020;7.772;2022-08-19T02:03:15;97310.00;;;19.50
19666;BMP180;9980;51.020;7.772;2022-08-19T02:05:44;97306.00;;;19.50
19666;BMP180;9980;51.020;7.772;2022-08-19T02:08:12;97301.00;;;19.50
19666;BMP180;9980;51.020;7.772;2022-08-19T02:10:42;97293.00;;;19.50
19666;BMP180;9980;51.020;7.772;2022-08-19T02:13:11;97287.00;;;19.50
19666;BMP180;9980;51.020;7.772;2022-08-19T02:15:38;97277.00;;;19.50
19666;BMP180;9980;51.020;7.772;2022-08-19T02:18:06;97291.00;;;19.40
19666;BMP180;9980;51.020;7.772;2022-08-19T02:20:34;97292.00;;;19.40
19666;BMP180;9980;51.020;7.772;2022-08-19T02:23:03;97284.00;;;19.40
19666;BMP180;9980;51.020;7.772;2022-08-19T02:25:30;97295.00;;;19.40
19666;BMP180;9980;51.020;7.772;2022-08-19T02:27:57;97280.00;;;19.40
19666;BMP180;9980;51.020;7.772;2022-08-19T02:30:24;97284.00;;;19.30
19666;BMP180;9980;51.020;7.772;2022-08-19T02:32:52;97274.00;;;19.30
19666;BMP180;9980;51.020;7.772;2022-08-19T02:35:20;97267.00;;;19.30
19666;BMP180;9980;51.020;7.772;2022-08-19T02:37:48;97273.00;;;19.30
19666;BMP180;9980;51.020;7.772;2022-08-19T02:40:34;97274.00;;;19.30
19666;BMP180;9980;51.020;7.772;2022-08-19T02:43:07;97286.00;;;19.20
19666;BMP180;9980;51.020;7.772;2022-08-19T02:45:37;97289.00;;;19.30
19666;BMP180;9980;51.020;7.772;2022-08-19T02:48:08;97292.00;;;19.20
19666;BMP180;9980;51.020;7.772;2022-08-19T02:50:50;97284.00;;;19.20
19666;BMP180;9980;51.020;7.772;2022-08-19T02:53:26;97282.00;;;19.20
19666;BMP180;9980;51.020;7.772;2022-08-19T02:55:54;97285.00;;;19.20
19666;BMP180;9980;51.020;7.772;2022-08-19T02:58:22;97272.00;;;19.20
19666;BMP180;9980;51.020;7.772;2022-08-19T03:00:56;97288.00;;;19.10
19666;BMP180;9980;51.020;7.772;2022-08-19T03:03:23;97276.00;;;19.10
19666;BMP180;9980;51.020;7.772;2022-08-19T03:05:50;97288.00;;;19.10
19666;BMP180;9980;51.020;7.772;2022-08-19T03:08:24;97288.00;;;19.10
19666;BMP180;9980;51.020;7.772;2022-08-19T03:10:52;97292.00;;;19.10
19666;BMP180;9980;51.020;7.772;2022-08-19T03:13:22;97284.00;;;19.00
19666;BMP180;9980;51.020;7.772;2022-08-19T03:15:50;97296.00;;;19.00
19666;BMP180;9980;51.020;7.772;2022-08-19T03:18:17;97294.00;;;19.00
19666;BMP180;9980;51.020;7.772;2022-08-19T03:20:50;97292.00;;;19.00
19666;BMP180;9980;51.020;7.772;2022-08-19T03:23:18;97284.00;;;19.00
19666;BMP180;9980;51.020;7.772;2022-08-19T03:25:50;97277.00;;;19.00
19666;BMP180;9980;51.020;7.772;2022-08-19T03:28:37;97277.00;;;19.00
19666;BMP180;9980;51.020;7.772;2022-08-19T03:31:11;97292.00;;;18.90
19666;BMP180;9980;51.020;7.772;2022-08-19T03:33:58;97274.00;;;18.90
19666;BMP180;9980;51.020;7.772;2022-08-19T03:36:27;97280.00;;;18.90
19666;BMP180;9980;51.020;7.772;2022-08-19T03:39:00;97280.00;;;18.90
19666;BMP180;9980;51.020;7.772;2022-08-19T03:41:31;97297.00;;;18.90
19666;BMP180;9980;51.020;7.772;2022-08-19T03:44:20;97299.00;;;18.80
19666;BMP180;9980;51.020;7.772;2022-08-19T03:46:58;97312.00;;;18.80
19666;BMP180;9980;51.020;7.772;2022-08-19T03:49:29;97291.00;;;18.80
19666;BMP180;9980;51.020;7.772;2022-08-19T03:51:58;97300.00;;;18.80
19666;BMP180;9980;51.020;7.772;2022-08-19T03:54:28;97307.00;;;18.80
19666;BMP180;9980;51.020;7.772;2022-08-19T03:56:56;97299.00;;;18.80
19666;BMP180;9980;51.020;7.772;2022-08-19T03:59:28;97307.00;;;18.70
19666;BMP180;9980;51.020;7.772;2022-08-19T04:01:59;97308.00;;;18.70
19666;BMP180;9980;51.020;7.772;2022-08-19T04:04:28;97296.00;;;18.70
19666;BMP180;9980;51.020;7.772;2022-08-19T04:06:57;97299.00;;;18.70
19666;BMP180;9980;51.020;7.772;2022-08-19T04:09:25;97304.00;;;18.60
19666;BMP180;9980;51.020;7.772;2022-08-19T04:11:56;97318.00;;;18.60
19666;BMP180;9980;51.020;7.772;2022-08-19T04:14:28;97313.00;;;18.60
19666;BMP180;9980;51.020;7.772;2022-08-19T04:16:59;97325.00;;;18.60
19666;BMP180;9980;51.020;7.772;2022-08-19T04:19:26;97324.00;;;18.60
19666;BMP180;9980;51.020;7.772;2022-08-19T04:21:55;97319.00;;;18.50
19666;BMP180;9980;51.020;7.772;2022-08-19T04:24:23;97316.00;;;18.50
19666;BMP180;9980;51.020;7.772;2022-08-19T04:26:51;97308.00;;;18.50
19666;BMP180;9980;51.020;7.772;2022-08-19T04:29:22;97312.00;;;18.50
19666;BMP180;9980;51.020;7.772;2022-08-19T04:31:54;97318.00;;;18.50
19666;BMP180;9980;51.020;7.772;2022-08-19T04:34:26;97320.00;;;18.40
19666;BMP180;9980;51.020;7.772;2022-08-19T04:36:55;97306.00;;;18.40
19666;BMP180;9980;51.020;7.772;2022-08-19T04:39:30;97328.00;;;18.40
19666;BMP180;9980;51.020;7.772;2022-08-19T04:42:17;97319.00;;;18.40
19666;BMP180;9980;51.020;7.772;2022-08-19T04:45:14;97319.00;;;18.30
19666;BMP180;9980;51.020;7.772;2022-08-19T04:47:44;97324.00;;;18.30
19666;BMP180;9980;51.020;7.772;2022-08-19T04:50:25;97323.00;;;18.30
19666;BMP180;9980;51.020;7.772;2022-08-19T04:52:53;97325.00;;;18.30
19666;BMP180;9980;51.020;7.772;2022-08-19T04:55:20;97336.00;;;18.30
19666;BMP180;9980;51.020;7.772;2022-08-19T04:57:47;97322.00;;;18.30
19666;BMP180;9980;51.020;7.772;2022-08-19T05:00:15;97336.00;;;18.30
19666;BMP180;9980;51.020;7.772;2022-08-19T05:02:42;97320.00;;;18.30
19666;BMP180;9980;51.020;7.772;2022-08-19T05:05:10;97335.00;;;18.40
19666;BMP180;9980;51.020;7.772;2022-08-19T05:07:37;97336.00;;;18.40
19666;BMP180;9980;51.020;7.772;2022-08-19T05:10:05;97347.00;;;18.40
19666;BMP180;9980;51.020;7.772;2022-08-19T05:12:33;97329.00;;;18.40
19666;BMP180;9980;51.020;7.772;2022-08-19T05:15:03;97355.00;;;18.40
19666;BMP180;9980;51.020;7.772;2022-08-19T05:17:31;97352.00;;;18.50
19666;BMP180;9980;51.020;7.772;2022-08-19T05:20:06;97360.00;;;18.50
19666;BMP180;9980;51.020;7.772;2022-08-19T05:22:52;97354.00;;;18.60
19666;BMP180;9980;51.020;7.772;2022-08-19T05:25:20;97356.00;;;18.60
19666;BMP180;9980;51.020;7.772;2022-08-19T05:27:48;97356.00;;;18.70
19666;BMP180;9980;51.020;7.772;2022-08-19T05:30:16;97348.00;;;18.70
19666;BMP180;9980;51.020;7.772;2022-08-19T05:32:44;97356.00;;;18.80
19666;BMP180;9980;51.020;7.772;2022-08-19T05:35:11;97352.00;;;18.80
19666;BMP180;9980;51.020;7.772;2022-08-19T05:37:39;97354.00;;;18.90
19666;BMP180;9980;51.020;7.772;2022-08-19T05:40:10;97353.00;;;19.00
19666;BMP180;9980;51.020;7.772;2022-08-19T05:42:37;97340.00;;;19.10
19666;BMP180;9980;51.020;7.772;2022-08-19T05:45:05;97345.00;;;19.20
19666;BMP180;9980;51.020;7.772;2022-08-19T05:47:33;97348.00;;;19.30
19666;BMP180;9980;51.020;7.772;2022-08-19T05:50:00;97336.00;;;19.40
19666;BMP180;9980;51.020;7.772;2022-08-19T05:52:31;97338.00;;;19.50
19666;BMP180;9980;51.020;7.772;2022-08-19T05:54:59;97344.00;;;19.60
19666;BMP180;9980;51.020;7.772;2022-08-19T05:57:26;97342.00;;;19.70
19666;BMP180;9980;51.020;7.772;2022-08-19T05:59:56;97341.00;;;19.80
19666;BMP180;9980;51.020;7.772;2022-08-19T06:02:26;97341.00;;;19.90
19666;BMP180;9980;51.020;7.772;2022-08-19T06:04:54;97334.00;;;20.00
19666;BMP180;9980;51.020;7.772;2022-08-19T06:07:22;97343.00;;;20.10
19666;BMP180;9980;51.020;7.772;2022-08-19T06:09:49;97341.00;;;20.30
19666;BMP180;9980;51.020;7.772;2022-08-19T06:12:31;97344.00;;;20.40
19666;BMP180;9980;51.020;7.772;2022-08-19T06:15:11;97333.00;;;20.50
19666;BMP180;9980;51.020;7.772;2022-08-19T06:17:38;97345.00;;;20.60
19666;BMP180;9980;51.020;7.772;2022-08-19T06:20:09;97346.00;;;20.70
19666;BMP180;9980;51.020;7.772;2022-08-19T06:22:43;97329.00;;;20.90
19666;BMP180;9980;51.020;7.772;2022-08-19T06:25:12;97319.00;;;21.00
19666;BMP180;9980;51.020;7.772;2022-08-19T06:27:41;97335.00;;;21.10
19666;BMP180;9980;51.020;7.772;2022-08-19T06:30:28;97332.00;;;21.20
19666;BMP180;9980;51.020;7.772;2022-08-19T06:32:55;97338.00;;;21.30
19666;BMP180;9980;51.020;7.772;2022-08-19T06:35:22;97340.00;;;21.40
19666;BMP180;9980;51.020;7.772;2022-08-19T06:37:49;97318.00;;;21.50
19666;BMP180;9980;51.020;7.772;2022-08-19T06:40:17;97333.00;;;21.70
19666;BMP180;9980;51.020;7.772;2022-08-19T06:42:44;97333.00;;;21.80
19666;BMP180;9980;51.020;7.772;2022-08-19T06:45:22;97322.00;;;21.90
19666;BMP180;9980;51.020;7.772;2022-08-19T06:47:52;97323.00;;;22.00
19666;BMP180;9980;51.020;7.772;2022-08-19T06:50:23;97324.00;;;22.10
19666;BMP180;9980;51.020;7.772;2022-08-19T06:52:51;97323.00;;;22.20
19666;BMP180;9980;51.020;7.772;2022-08-19T06:55:18;97329.00;;;22.30
19666;BMP180;9980;51.020;7.772;2022-08-19T06:57:46;97329.00;;;22.40
19666;BMP180;9980;51.020;7.772;2022-08-19T07:00:15;97331.00;;;22.50
19666;BMP180;9980;51.020;7.772;2022-08-19T07:02:43;97345.00;;;22.60
19666;BMP180;9980;51.020;7.772;2022-08-19T07:05:22;97346.00;;;22.70
19666;BMP180;9980;51.020;7.772;2022-08-19T07:07:49;97354.00;;;22.80
19666;BMP180;9980;51.020;7.772;2022-08-19T07:10:17;97354.00;;;22.90
19666;BMP180;9980;51.020;7.772;2022-08-19T07:12:45;97363.00;;;23.00
19666;BMP180;9980;51.020;7.772;2022-08-19T07:15:13;97372.00;;;23.10
19666;BMP180;9980;51.020;7.772;2022-08-19T07:17:40;97367.00;;;23.20
19666;BMP180;9980;51.020;7.772;2022-08-19T07:20:09;97370.00;;;23.30
19666;BMP180;9980;51.020;7.772;2022-08-19T07:22:38;97386.00;;;23.30
19666;BMP180;9980;51.020;7.772;2022-08-19T07:25:09;97374.00;;;23.40
19666;BMP180;9980;51.020;7.772;2022-08-19T07:27:36;97382.00;;;23.50
19666;BMP180;9980;51.020;7.772;2022-08-19T07:30:07;97375.00;;;23.60
19666;BMP180;9980;51.020;7.772;2022-08-19T07:32:39;97375.00;;;23.70
19666;BMP180;9980;51.020;7.772;2022-08-19T07:35:07;97371.00;;;23.70
19666;BMP180;9980;51.020;7.772;2022-08-19T07:37:36;97380.00;;;23.90
19666;BMP180;9980;51.020;7.772;2022-08-19T07:40:06;97386.00;;;24.00
19666;BMP180;9980;51.020;7.772;2022-08-19T07:42:34;97394.00;;;24.10
19666;BMP180;9980;51.020;7.772;2022-08-19T07:45:01;97407.00;;;24.20
19666;BMP180;9980;51.020;7.772;2022-08-19T07:47:28;97390.00;;;24.30
19666;BMP180;9980;51.020;7.772;2022-08-19T07:50:16;97387.00;;;24.40
19666;BMP180;9980;51.020;7.772;2022-08-19T07:52:44;97397.00;;;24.50
19666;BMP180;9980;51.020;7.772;2022-08-19T07:55:25;97401.00;;;24.60
19666;BMP180;9980;51.020;7.772;2022-08-19T07:58:13;97393.00;;;24.70
19666;BMP180;9980;51.020;7.772;2022-08-19T08:00:43;97388.00;;;24.80
19666;BMP180;9980;51.020;7.772;2022-08-19T08:03:11;97388.00;;;25.00
19666;BMP180;9980;51.020;7.772;2022-08-19T08:05:38;97389.00;;;25.10
19666;BMP180;9980;51.020;7.772;2022-08-19T08:08:24;97392.00;;;25.30
19666;BMP180;9980;51.020;7.772;2022-08-19T08:11:17;97396.00;;;25.50
19666;BMP180;9980;51.020;7.772;2022-08-19T08:13:47;97399.00;;;25.60
19666;BMP180;9980;51.020;7.772;2022-08-19T08:16:33;97394.00;;;25.80
19666;BMP180;9980;51.020;7.772;2022-08-19T08:19:00;97384.00;;;25.90
19666;BMP180;9980;51.020;7.772;2022-08-19T08:21:27;97376.00;;;26.00
19666;BMP180;9980;51.020;7.772;2022-08-19T08:23:54;97386.00;;;26.20
19666;BMP180;9980;51.020;7.772;2022-08-19T08:26:23;97406.00;;;26.30
19666;BMP180;9980;51.020;7.772;2022-08-19T08:28:53;97401.00;;;26.40
19666;BMP180;9980;51.020;7.772;2022-08-19T08:31:20;97397.00;;;26.50
19666;BMP180;9980;51.020;7.772;2022-08-19T08:33:47;97382.00;;;26.60
19666;BMP180;9980;51.020;7.772;2022-08-19T08:36:15;97390.00;;;26.70
19666;BMP180;9980;51.020;7.772;2022-08-19T08:38:44;97394.00;;;26.80
19666;BMP180;9980;51.020;7.772;2022-08-19T08:41:44;97372.00;;;26.90
19666;BMP180;9980;51.020;7.772;2022-08-19T08:44:51;97386.00;;;27.00
19666;BMP180;9980;51.020;7.772;2022-08-19T08:47:29;97392.00;;;27.20
19666;BMP180;9980;51.020;7.772;2022-08-19T08:50:05;97376.00;;;27.30
19666;BMP180;9980;51.020;7.772;2022-08-19T08:52:39;97403.00;;;27.40
19666;BMP180;9980;51.020;7.772;2022-08-19T08:55:26;97404.00;;;27.40
19666;BMP180;9980;51.020;7.772;2022-08-19T08:58:19;97396.00;;;27.50
19666;BMP180;9980;51.020;7.772;2022-08-19T09:00:48;97405.00;;;27.60
19666;BMP180;9980;51.020;7.772;2022-08-19T09:03:21;97407.00;;;27.70
19666;BMP180;9980;51.020;7.772;2022-08-19T09:09:20;97397.00;;;27.90
19666;BMP180;9980;51.020;7.772;2022-08-19T09:12:36;97398.00;;;28.00
19666;BMP180;9980;51.020;7.772;2022-08-19T09:15:12;97391.00;;;28.10
19666;BMP180;9980;51.020;7.772;2022-08-19T09:17:40;97381.00;;;28.20
19666;BMP180;9980;51.020;7.772;2022-08-19T09:22:41;97378.00;;;28.50
19666;BMP180;9980;51.020;7.772;2022-08-19T09:25:15;97382.00;;;28.60
19666;BMP180;9980;51.020;7.772;2022-08-19T09:27:54;97378.00;;;28.70
19666;BMP180;9980;51.020;7.772;2022-08-19T09:30:33;97388.00;;;28.80
19666;BMP180;9980;51.020;7.772;2022-08-19T09:33:02;97383.00;;;28.90
19666;BMP180;9980;51.020;7.772;2022-08-19T09:35:30;97394.00;;;29.00
19666;BMP180;9980;51.020;7.772;2022-08-19T09:37:58;97387.00;;;29.10
19666;BMP180;9980;51.020;7.772;2022-08-19T09:40:30;97397.00;;;29.10
19666;BMP180;9980;51.020;7.772;2022-08-19T09:43:04;97388.00;;;29.20
19666;BMP180;9980;51.020;7.772;2022-08-19T09:45:39;97384.00;;;29.30
19666;BMP180;9980;51.020;7.772;2022-08-19T09:48:06;97385.00;;;29.30
19666;BMP180;9980;51.020;7.772;2022-08-19T09:50:35;97397.00;;;29.40
19666;BMP180;9980;51.020;7.772;2022-08-19T09:53:18;97391.00;;;29.40
19666;BMP180;9980;51.020;7.772;2022-08-19T09:55:45;97399.00;;;29.50
19666;BMP180;9980;51.020;7.772;2022-08-19T09:58:12;97390.00;;;29.50
19666;BMP180;9980;51.020;7.772;2022-08-19T10:00:39;97390.00;;;29.60
19666;BMP180;9980;51.020;7.772;2022-08-19T10:03:06;97386.00;;;29.70
19666;BMP180;9980;51.020;7.772;2022-08-19T10:05:34;97403.00;;;29.70
19666;BMP180;9980;51.020;7.772;2022-08-19T10:08:33;97391.00;;;29.80
19666;BMP180;9980;51.020;7.772;2022-08-19T10:11:01;97393.00;;;29.90
19666;BMP180;9980;51.020;7.772;2022-08-19T10:13:48;97392.00;;;30.00
19666;BMP180;9980;51.020;7.772;2022-08-19T10:16:20;97389.00;;;30.00
19666;BMP180;9980;51.020;7.772;2022-08-19T10:18:53;97390.00;;;30.10
19666;BMP180;9980;51.020;7.772;2022-08-19T10:21:29;97397.00;;;30.10
19666;BMP180;9980;51.020;7.772;2022-08-19T10:24:01;97388.00;;;30.10
19666;BMP180;9980;51.020;7.772;2022-08-19T10:26:35;97388.00;;;30.10
19666;BMP180;9980;51.020;7.772;2022-08-19T10:29:05;97396.00;;;30.20
19666;BMP180;9980;51.020;7.772;2022-08-19T10:31:35;97374.00;;;30.20
19666;BMP180;9980;51.020;7.772;2022-08-19T10:34:22;97375.00;;;30.30
19666;BMP180;9980;51.020;7.772;2022-08-19T10:36:55;97377.00;;;30.30
19666;BMP180;9980;51.020;7.772;2022-08-19T10:39:33;97384.00;;;30.30
19666;BMP180;9980;51.020;7.772;2022-08-19T10:42:10;97378.00;;;30.40
19666;BMP180;9980;51.020;7.772;2022-08-19T10:44:37;97378.00;;;30.50
19666;BMP180;9980;51.020;7.772;2022-08-19T10:47:04;97372.00;;;30.60
19666;BMP180;9980;51.020;7.772;2022-08-19T10:49:53;97381.00;;;30.60
19666;BMP180;9980;51.020;7.772;2022-08-19T10:52:46;97383.00;;;30.60
19666;BMP180;9980;51.020;7.772;2022-08-19T10:55:23;97376.00;;;30.60
19666;BMP180;9980;51.020;7.772;2022-08-19T10:58:13;97365.00;;;30.60
19666;BMP180;9980;51.020;7.772;2022-08-19T11:00:41;97367.00;;;30.60
19666;BMP180;9980;51.020;7.772;2022-08-19T11:03:10;97365.00;;;30.60
19666;BMP180;9980;51.020;7.772;2022-08-19T11:05:37;97358.00;;;30.70
19666;BMP180;9980;51.020;7.772;2022-08-19T11:08:08;97357.00;;;30.70
19666;BMP180;9980;51.020;7.772;2022-08-19T11:10:52;97365.00;;;30.70
19666;BMP180;9980;51.020;7.772;2022-08-19T11:13:29;97360.00;;;30.70
19666;BMP180;9980;51.020;7.772;2022-08-19T11:15:59;97353.00;;;30.70
19666;BMP180;9980;51.020;7.772;2022-08-19T11:18:37;97362.00;;;30.80
19666;BMP180;9980;51.020;7.772;2022-08-19T11:21:16;97379.00;;;30.80
19666;BMP180;9980;51.020;7.772;2022-08-19T11:23:48;97383.00;;;30.80
19666;BMP180;9980;51.020;7.772;2022-08-19T11:26:17;97379.00;;;30.80
19666;BMP180;9980;51.020;7.772;2022-08-19T11:28:45;97358.00;;;30.80
19666;BMP180;9980;51.020;7.772;2022-08-19T11:31:20;97367.00;;;30.80
19666;BMP180;9980;51.020;7.772;2022-08-19T11:34:02;97366.00;;;30.80
19666;BMP180;9980;51.020;7.772;2022-08-19T11:36:31;97367.00;;;30.80
19666;BMP180;9980;51.020;7.772;2022-08-19T11:39:04;97362.00;;;30.90
19666;BMP180;9980;51.020;7.772;2022-08-19T11:41:32;97362.00;;;31.00
19666;BMP180;9980;51.020;7.772;2022-08-19T11:44:03;97362.00;;;31.10
19666;BMP180;9980;51.020;7.772;2022-08-19T11:46:31;97357.00;;;31.10
19666;BMP180;9980;51.020;7.772;2022-08-19T11:49:00;97354.00;;;31.10
19666;BMP180;9980;51.020;7.772;2022-08-19T11:51:28;97359.00;;;31.20
19666;BMP180;9980;51.020;7.772;2022-08-19T11:53:57;97346.00;;;31.20
19666;BMP180;9980;51.020;7.772;2022-08-19T11:56:27;97354.00;;;31.30
19666;BMP180;9980;51.020;7.772;2022-08-19T11:58:55;97354.00;;;31.40
19666;BMP180;9980;51.020;7.772;2022-08-19T12:01:25;97361.00;;;31.40
19666;BMP180;9980;51.020;7.772;2022-08-19T12:03:55;97362.00;;;31.40
19666;BMP180;9980;51.020;7.772;2022-08-19T12:06:31;97365.00;;;31.40
19666;BMP180;9980;51.020;7.772;2022-08-19T12:09:04;97350.00;;;31.40
19666;BMP180;9980;51.020;7.772;2022-08-19T12:11:32;97364.00;;;31.50
19666;BMP180;9980;51.020;7.772;2022-08-19T12:14:00;97343.00;;;31.50
19666;BMP180;9980;51.020;7.772;2022-08-19T12:16:30;97343.00;;;31.60
19666;BMP180;9980;51.020;7.772;2022-08-19T12:19:00;97346.00;;;31.60
19666;BMP180;9980;51.020;7.772;2022-08-19T12:21:34;97328.00;;;31.70
19666;BMP180;9980;51.020;7.772;2022-08-19T12:24:04;97347.00;;;31.80
19666;BMP180;9980;51.020;7.772;2022-08-19T12:26:34;97349.00;;;31.80
19666;BMP180;9980;51.020;7.772;2022-08-19T12:29:20;97356.00;;;31.80
19666;BMP180;9980;51.020;7.772;2022-08-19T12:31:50;97347.00;;;31.80
19666;BMP180;9980;51.020;7.772;2022-08-19T12:34:18;97353.00;;;31.80
19666;BMP180;9980;51.020;7.772;2022-08-19T12:36:46;97343.00;;;31.80
19666;BMP180;9980;51.020;7.772;2022-08-19T12:39:15;97353.00;;;31.70
19666;BMP180;9980;51.020;7.772;2022-08-19T12:41:42;97345.00;;;31.70
19666;BMP180;9980;51.020;7.772;2022-08-19T12:44:21;97345.00;;;31.60
19666;BMP180;9980;51.020;7.772;2022-08-19T12:46:56;97341.00;;;31.60
19666;BMP180;9980;51.020;7.772;2022-08-19T12:49:23;97343.00;;;31.60
19666;BMP180;9980;51.020;7.772;2022-08-19T12:52:12;97350.00;;;31.50
19666;BMP180;9980;51.020;7.772;2022-08-19T12:54:47;97331.00;;;31.50
19666;BMP180;9980;51.020;7.772;2022-08-19T12:57:18;97328.00;;;31.40
19666;BMP180;9980;51.020;7.772;2022-08-19T12:59:45;97320.00;;;31.30
19666;BMP180;9980;51.020;7.772;2022-08-19T13:02:12;97330.00;;;31.10
19666;BMP180;9980;51.020;7.772;2022-08-19T13:04:39;97325.00;;;31.10
19666;BMP180;9980;51.020;7.772;2022-08-19T13:07:07;97306.00;;;31.10
19666;BMP180;9980;51.020;7.772;2022-08-19T13:09:35;97306.00;;;31.10
19666;BMP180;9980;51.020;7.772;2022-08-19T13:12:04;97318.00;;;31.10
19666;BMP180;9980;51.020;7.772;2022-08-19T13:14:35;97312.00;;;31.10
19666;BMP180;9980;51.020;7.772;2022-08-19T13:17:02;97310.00;;;31.20
19666;BMP180;9980;51.020;7.772;2022-08-19T13:19:30;97310.00;;;31.20
19666;BMP180;9980;51.020;7.772;2022-08-19T13:21:58;97319.00;;;31.30
19666;BMP180;9980;51.020;7.772;2022-08-19T13:24:26;97324.00;;;31.40
19666;BMP180;9980;51.020;7.772;2022-08-19T13:27:03;97336.00;;;31.40
19666;BMP180;9980;51.020;7.772;2022-08-19T13:29:30;97326.00;;;31.50
19666;BMP180;9980;51.020;7.772;2022-08-19T13:32:16;97316.00;;;31.60
19666;BMP180;9980;51.020;7.772;2022-08-19T13:35:04;97318.00;;;31.60
19666;BMP180;9980;51.020;7.772;2022-08-19T13:37:31;97326.00;;;31.60
19666;BMP180;9980;51.020;7.772;2022-08-19T13:40:21;97322.00;;;31.70
19666;BMP180;9980;51.020;7.772;2022-08-19T13:42:54;97315.00;;;31.70
19666;BMP180;9980;51.020;7.772;2022-08-19T13:45:24;97323.00;;;31.80
19666;BMP180;9980;51.020;7.772;2022-08-19T13:47:56;97315.00;;;31.80
19666;BMP180;9980;51.020;7.772;2022-08-19T13:50:30;97312.00;;;31.90
19666;BMP180;9980;51.020;7.772;2022-08-19T13:53:01;97305.00;;;32.00
19666;BMP180;9980;51.020;7.772;2022-08-19T13:55:29;97302.00;;;32.00
19666;BMP180;9980;51.020;7.772;2022-08-19T13:57:59;97311.00;;;32.10
19666;BMP180;9980;51.020;7.772;2022-08-19T14:00:34;97283.00;;;32.20
19666;BMP180;9980;51.020;7.772;2022-08-19T14:03:03;97301.00;;;32.30
19666;BMP180;9980;51.020;7.772;2022-08-19T14:05:35;97310.00;;;32.40
19666;BMP180;9980;51.020;7.772;2022-08-19T14:08:04;97292.00;;;32.40
19666;BMP180;9980;51.020;7.772;2022-08-19T14:10:31;97333.00;;;32.40
19666;BMP180;9980;51.020;7.772;2022-08-19T14:13:03;97317.00;;;32.50
19666;BMP180;9980;51.020;7.772;2022-08-19T14:15:30;97316.00;;;32.60
19666;BMP180;9980;51.020;7.772;2022-08-19T14:18:01;97335.00;;;32.60
19666;BMP180;9980;51.020;7.772;2022-08-19T14:20:29;97338.00;;;32.70
19666;BMP180;9980;51.020;7.772;2022-08-19T14:22:56;97344.00;;;32.70
19666;BMP180;9980;51.020;7.772;2022-08-19T14:25:27;97331.00;;;32.80
19666;BMP180;9980;51.020;7.772;2022-08-19T14:27:55;97319.00;;;32.80
19666;BMP180;9980;51.020;7.772;2022-08-19T14:30:32;97329.00;;;32.80
19666;BMP180;9980;51.020;7.772;2022-08-19T14:33:01;97322.00;;;32.80
19666;BMP180;9980;51.020;7.772;2022-08-19T14:35:31;97325.00;;;32.80
19666;BMP180;9980;51.020;7.772;2022-08-19T14:38:05;97322.00;;;32.80
19666;BMP180;9980;51.020;7.772;2022-08-19T14:40:32;97326.00;;;32.80
19666;BMP180;9980;51.020;7.772;2022-08-19T14:43:03;97311.00;;;32.80
19666;BMP180;9980;51.020;7.772;2022-08-19T14:45:38;97318.00;;;32.80
19666;BMP180;9980;51.020;7.772;2022-08-19T14:48:08;97321.00;;;32.90
19666;BMP180;9980;51.020;7.772;2022-08-19T14:50:46;97330.00;;;32.90
19666;BMP180;9980;51.020;7.772;2022-08-19T14:53:13;97312.00;;;32.90
19666;BMP180;9980;51.020;7.772;2022-08-19T14:55:45;97331.00;;;32.80